createdAt,value
2022-07-25T00:04:46.611Z,92.17969
2022-07-25T00:09:49.264Z,95.39258
2022-07-25T00:14:51.792Z,94.60059
2022-07-25T00:19:54.554Z,92.19824
2022-07-25T00:24:56.991Z,94.57715
2022-07-25T00:29:59.750Z,95.11621
2022-07-25T00:40:05.010Z,89.20801
2022-07-25T00:45:07.723Z,91.91602
2022-07-25T00:50:10.331Z,92.43848
2022-07-25T00:55:13.098Z,93.9502
2022-07-25T01:00:15.887Z,95.0332
2022-07-25T01:05:18.634Z,92.05859
2022-07-25T01:10:21.161Z,88.81836
2022-07-25T01:15:23.975Z,94.81641
2022-07-25T01:20:26.606Z,94.85645
2022-07-25T01:25:29.117Z,100
2022-07-25T01:30:31.790Z,99.54004
2022-07-25T01:36:23.162Z,99.38184
2022-07-25T01:41:26.009Z,97.55078
2022-07-25T01:46:28.400Z,98.37012
2022-07-25T01:51:30.958Z,100
2022-07-25T02:01:36.692Z,100
2022-07-25T02:06:39.290Z,100
2022-07-25T02:21:47.440Z,98.67871
2022-07-25T02:26:50.075Z,100
2022-07-25T02:31:52.685Z,97.96289
2022-07-25T02:36:58.526Z,100
2022-07-25T02:42:01.187Z,100
2022-07-25T02:47:04.235Z,100
2022-07-25T02:52:08.736Z,100
2022-07-25T02:57:11.419Z,100
2022-07-25T03:02:14.155Z,100
2022-07-25T03:07:16.932Z,100
2022-07-25T03:17:25.091Z,100
2022-07-25T03:27:30.563Z,100
2022-07-25T03:32:33.238Z,100
2022-07-25T03:37:35.967Z,100
2022-07-25T03:42:56.760Z,100
2022-07-25T03:53:05.126Z,100
2022-07-25T03:58:07.905Z,100
2022-07-25T04:18:19.695Z,95.34766
2022-07-25T04:23:28.859Z,96.25684
2022-07-25T04:33:34.320Z,92.22266
2022-07-25T04:38:37.125Z,92.14844
2022-07-25T04:43:42.595Z,91.54492
2022-07-25T04:48:42.793Z,88.89453
2022-07-25T04:58:54.371Z,86.91309
2022-07-25T05:14:54.637Z,80.19043
2022-07-25T05:19:57.617Z,83.00195
2022-07-25T05:25:00.440Z,80.80957
2022-07-25T05:30:05.972Z,78.5166
2022-07-25T05:35:11.709Z,77.80566
2022-07-25T05:45:17.979Z,70.55566
2022-07-25T05:50:20.833Z,73.32813
2022-07-25T05:55:23.498Z,66.68652
2022-07-25T06:00:26.436Z,69.74219
2022-07-25T06:05:29.271Z,70.08398
2022-07-25T06:10:34.678Z,70.45898
2022-07-25T06:15:37.588Z,66.63867
2022-07-25T06:20:40.305Z,68.83984
2022-07-25T06:25:43.002Z,66.44238
2022-07-25T06:30:45.533Z,68.40918
2022-07-25T06:35:48.162Z,62.71777
2022-07-25T06:40:51.022Z,60.22266
2022-07-25T06:50:57.212Z,57.62598
2022-07-25T06:56:00.281Z,59.17578
2022-07-25T07:01:11.630Z,59.16797
2022-07-25T07:11:17.339Z,56.36621
2022-07-25T07:16:20.583Z,56.83691
2022-07-25T07:21:23.346Z,54.55273
2022-07-25T07:31:29.519Z,53.4502
2022-07-25T07:36:31.991Z,53.21777
2022-07-25T07:41:34.923Z,53.39453
2022-07-25T07:46:37.818Z,56.4873
2022-07-25T07:56:43.179Z,51.62598
2022-07-25T08:01:45.958Z,52.12891
2022-07-25T08:06:48.991Z,56.00195
2022-07-25T08:11:51.841Z,51.50391
2022-07-25T08:16:54.337Z,53.77637
2022-07-25T08:21:57.178Z,52.58105
2022-07-25T08:27:00.127Z,51.66992
2022-07-25T08:32:02.817Z,49.75781
2022-07-25T08:42:11.040Z,51.85156
2022-07-25T08:47:11.006Z,51.52051
2022-07-25T08:52:13.782Z,50.69727
2022-07-25T08:57:16.590Z,48.02637
2022-07-25T09:02:19.807Z,48.34961
2022-07-25T09:07:22.645Z,47.37988
2022-07-25T09:12:26.118Z,49.36621
2022-07-25T09:17:27.897Z,50.13672
2022-07-25T09:22:30.698Z,48.03613
2022-07-25T09:27:33.115Z,50.01953
2022-07-25T09:32:35.928Z,45.6123
2022-07-25T09:37:41.742Z,47.56934
2022-07-25T09:42:44.635Z,49.25293
2022-07-25T09:47:47.252Z,44.80566
2022-07-25T09:52:49.902Z,45.61328
2022-07-25T09:57:52.647Z,44.48926
2022-07-25T10:02:55.542Z,42.14941
2022-07-25T10:18:04.174Z,39.2002
2022-07-25T10:23:06.982Z,41.19434
2022-07-25T10:28:09.436Z,39.00098
2022-07-25T10:33:14.933Z,39.13086
2022-07-25T10:38:20.956Z,40.64063
2022-07-25T10:43:23.874Z,40.02148
2022-07-25T10:53:29.099Z,38.64648
2022-07-25T10:58:31.967Z,37.01953
2022-07-25T11:03:34.888Z,36.27539
2022-07-25T11:08:37.406Z,37.41602
2022-07-25T11:13:40.206Z,35.7041
2022-07-25T11:23:46.056Z,34.41406
2022-07-25T11:28:49.052Z,34.93359
2022-07-25T11:33:52.043Z,33.67676
2022-07-25T11:38:55.052Z,32.54492
2022-07-25T11:43:57.725Z,31.50586
2022-07-25T11:49:00.846Z,31.17285
2022-07-25T11:54:03.529Z,31.82227
2022-07-25T11:59:06.459Z,31.37207
2022-07-25T12:04:08.831Z,32.11426
2022-07-25T12:09:15.080Z,34.7168
2022-07-25T12:14:14.102Z,33.53027
2022-07-25T12:24:19.763Z,32.98242
2022-07-25T12:29:22.573Z,32.24121
2022-07-25T12:34:25.389Z,33.70117
2022-07-25T12:44:31.140Z,34.46094
2022-07-25T13:09:47.861Z,32.99902
2022-07-25T13:14:50.623Z,33.40234
2022-07-25T13:19:53.365Z,34.50781
2022-07-25T13:24:56.113Z,32.69824
2022-07-25T13:30:01.749Z,32.45898
2022-07-25T13:35:04.496Z,32.15137
2022-07-25T13:40:07.281Z,32.52832
2022-07-25T13:50:13.046Z,33.53516
2022-07-25T13:55:15.778Z,32.21777
2022-07-25T14:00:18.756Z,32.68164
2022-07-25T14:15:26.443Z,33.70313
2022-07-25T14:25:32.301Z,32.81836
2022-07-25T14:35:37.521Z,35.20605
2022-07-25T14:40:40.250Z,32.20215
2022-07-25T14:45:42.970Z,33.75488
2022-07-25T14:50:45.620Z,34.11133
2022-07-25T14:55:48.410Z,32.56152
2022-07-25T15:06:10.623Z,33.74707
2022-07-25T15:16:50.098Z,32.62891
2022-07-25T15:21:52.599Z,32.84375
2022-07-25T15:31:58.178Z,31.7793
2022-07-25T15:37:01.006Z,33.1748
2022-07-25T15:47:06.499Z,31.47754
2022-07-25T15:52:10.704Z,30.49121
2022-07-25T15:57:13.053Z,30.73438
2022-07-25T16:02:24.498Z,32.29199
2022-07-25T16:07:27.173Z,33.01074
2022-07-25T16:17:32.239Z,33.29297
2022-07-25T16:22:35.031Z,33.82129
2022-07-25T16:27:37.494Z,33.36426
2022-07-25T16:32:40.499Z,33.9082
2022-07-25T16:37:43.143Z,32.78418
2022-07-25T16:42:45.705Z,35.06055
2022-07-25T16:47:51.037Z,35.80078
2022-07-25T16:52:53.413Z,47.34082
2022-07-25T16:57:55.759Z,59.56738
2022-07-25T17:02:58.077Z,64.92871
2022-07-25T17:18:06.204Z,71.41504
2022-07-25T17:28:11.536Z,97.2627
2022-07-25T17:43:19.053Z,100
2022-07-25T17:48:21.783Z,100
2022-07-25T17:53:24.387Z,100
2022-07-25T17:58:29.915Z,100
2022-07-25T18:03:32.438Z,100
2022-07-25T18:08:35.409Z,100
2022-07-25T18:13:41.786Z,100
2022-07-25T18:23:50.390Z,100
2022-07-25T18:28:52.931Z,100
2022-07-25T18:33:58.365Z,100
2022-07-25T18:39:01.015Z,100
2022-07-25T18:44:06.940Z,100
2022-07-25T18:49:15.365Z,100
2022-07-25T18:54:18.154Z,100
2022-07-25T18:59:20.721Z,100
2022-07-25T19:19:34.753Z,100
2022-07-25T19:29:40.282Z,100
2022-07-25T19:34:43.037Z,100
2022-07-25T19:39:45.785Z,100
2022-07-25T19:44:48.328Z,100
2022-07-25T19:49:50.990Z,100
2022-07-25T19:54:53.714Z,100
2022-07-25T19:59:56.356Z,100
2022-07-25T20:04:59.045Z,100
2022-07-25T20:10:04.509Z,100
2022-07-25T20:15:07.220Z,100
2022-07-25T20:20:10.020Z,100
2022-07-25T20:25:12.716Z,100
2022-07-25T20:30:15.251Z,100
2022-07-25T20:35:18.096Z,100
2022-07-25T20:40:20.553Z,100
2022-07-25T20:45:23.185Z,100
2022-07-25T20:50:25.985Z,100
2022-07-25T20:55:28.621Z,100
2022-07-25T21:00:31.115Z,100
2022-07-25T21:05:34.035Z,100
2022-07-25T21:10:36.555Z,100
2022-07-25T21:15:39.420Z,100
2022-07-25T21:20:41.847Z,100
2022-07-25T21:25:44.526Z,100
2022-07-25T21:30:47.028Z,100
2022-07-25T21:35:50.542Z,100
2022-07-25T21:40:57.592Z,100
2022-07-25T21:46:00.315Z,100
2022-07-25T21:51:07.583Z,100
2022-07-25T22:01:08.620Z,100
2022-07-25T22:06:10.992Z,100
2022-07-25T22:11:16.142Z,100
2022-07-25T22:16:16.252Z,100
2022-07-25T22:21:19.024Z,100
2022-07-25T22:26:21.585Z,100
2022-07-25T22:31:24.484Z,100
2022-07-25T22:36:27.041Z,100
2022-07-25T22:41:29.581Z,100
2022-07-25T22:46:32.135Z,100
2022-07-25T22:51:37.706Z,100
2022-07-25T22:56:40.439Z,100
2022-07-25T23:01:43.068Z,100
2022-07-25T23:06:45.740Z,100
2022-07-25T23:11:48.378Z,100
2022-07-25T23:16:51.178Z,100
2022-07-25T23:21:53.639Z,100
2022-07-25T23:32:01.972Z,100
2022-07-25T23:37:04.452Z,100
2022-07-25T23:47:10.117Z,100
2022-07-25T23:52:12.086Z,100
2022-07-25T23:57:20.328Z,100
